Kurthwood, Louisiana
Current Conditions -  °F | °C
As of 4:56 AM on Sunday 23 Nov 2014 (Local Time) from KAQV Reporting Station
Moderate Rain Moderate Rain  
Wind Chill: 64°   Ceiling: 400
Heat Index: 64°   Visibility: 3mi
Dew Point: 62°   Wind: 0mph
Humidity: 93%   Direction: NA
Pressure: 29.64"   Gusts: NA
Location:  31.34°N, 93.17°W
Report Text: KAQV 231056Z AUTO 00000KT 3SM RA BR BKN004 OVC010 18/17 A2964 RMK AO2 SLP036 T01780167 PNO $
Loading
Personal Weather Stations






























Interactive Weather Map New forecast layout! Learn more

10-Day Weather Forecast

Advertisements
Track Severe Weather on mobile